Miami, Florida
Traffic Map
Current Weather Conditions
Miami, Florida
Broken Clouds
Broken Clouds
88°
Feels Like: 99°
Wind Chill: 88° Ceiling: 23000
Heat Index: 99° Visibility: 10mi
Dew Point: 76° Wind: 13mph
Humidity: 67% Direction: 120° (ESE)
Pressure: 30.11in Gusts: 0mph
Raw Report DataKMIA 181653Z 12011KT 10SM SCT030 SCT150 BKN230 31/24 A3011 RMK AO2 LTG DSNT NW TSE09 SLP197 CB DSNT E AND NW-N T03110244
Traffic Incident Summary
Active as of:
Severity:
Category:
InformationThere was an issue retrieving the traffic information for this location. Please try a different location or try again shortly.
Advertisements